Time;durP1;ratioP1;P1;durP2;ratioP2;P2;SDS_P1;SDS_P2;PMS_P1;PMS_P2;Temp;Humidity;BMP_temperature;BMP_pressure;BME280_temperature;BME280_humidity;BME280_pressure;Samples;Min_cycle;Max_cycle;Signal;HPM_P1;HPM_P2
2021/04/18 00:00:18;;;;;;;2.58;0.93;;;6.00;73.40;;;;;;5039216;28;20274;-62
2021/04/18 00:02:48;;;;;;;4.60;1.60;;;5.90;73.30;;;;;;5040903;28;20064;-62
2021/04/18 00:05:17;;;;;;;9.63;2.90;;;5.90;74.10;;;;;;5037146;28;20400;-63
2021/04/18 00:07:45;;;;;;;3.83;1.23;;;5.90;73.80;;;;;;5054198;28;20167;-62
2021/04/18 00:10:14;;;;;;;3.53;1.05;;;5.90;74.30;;;;;;5044921;28;20053;-62
2021/04/18 00:12:42;;;;;;;4.78;1.75;;;6.00;73.70;;;;;;5046252;28;20061;-63
2021/04/18 00:15:14;;;;;;;3.22;1.30;;;6.00;73.80;;;;;;5043245;28;20065;-62
2021/04/18 00:17:42;;;;;;;4.75;1.60;;;6.00;73.80;;;;;;5044173;28;20375;-62
2021/04/18 00:20:12;;;;;;;3.60;1.30;;;6.10;73.90;;;;;;5042686;28;20049;-62
2021/04/18 00:22:40;;;;;;;2.80;1.13;;;6.10;73.50;;;;;;5040713;28;20061;-63
2021/04/18 00:25:10;;;;;;;4.70;1.17;;;6.10;73.70;;;;;;5043967;28;20041;-62
2021/04/18 00:27:38;;;;;;;2.17;0.95;;;6.10;73.60;;;;;;5040729;28;20122;-63
2021/04/18 00:30:09;;;;;;;2.50;0.93;;;6.10;73.70;;;;;;5042066;28;20041;-62
2021/04/18 00:32:38;;;;;;;4.72;1.17;;;6.10;73.70;;;;;;5041864;28;20061;-62
2021/04/18 00:35:10;;;;;;;2.85;0.75;;;6.10;74.00;;;;;;5041037;28;20057;-63
2021/04/18 00:37:41;;;;;;;4.13;0.80;;;6.10;73.70;;;;;;5042412;28;20076;-63
2021/04/18 00:40:11;;;;;;;4.93;1.23;;;6.10;73.50;;;;;;5042700;28;20076;-62
2021/04/18 00:42:39;;;;;;;2.25;0.95;;;6.20;73.40;;;;;;5043004;28;20364;-63
2021/04/18 00:45:09;;;;;;;2.47;0.77;;;6.20;72.70;;;;;;5040368;28;20053;-62
2021/04/18 00:47:45;;;;;;;5.00;1.25;;;6.20;72.70;;;;;;5042110;28;20058;-63
2021/04/18 00:50:15;;;;;;;3.00;1.25;;;6.20;72.10;;;;;;5041812;28;20236;-63
2021/04/18 00:52:43;;;;;;;4.32;1.55;;;6.20;71.80;;;;;;5042911;28;20363;-63
2021/04/18 00:55:12;;;;;;;4.38;1.17;;;6.10;72.00;;;;;;5039181;28;20079;-62
2021/04/18 00:57:40;;;;;;;1.67;1.23;;;6.10;72.20;;;;;;5024383;28;20325;-63
2021/04/18 01:00:10;;;;;;;5.72;1.08;;;6.10;72.60;;;;;;5038032;28;20080;-62
2021/04/18 01:02:38;;;;;;;3.65;1.30;;;6.10;72.50;;;;;;5040727;28;20577;-63
2021/04/18 01:05:08;;;;;;;3.10;1.00;;;6.10;72.50;;;;;;5054899;28;20068;-62
2021/04/18 01:07:36;;;;;;;2.47;1.05;;;6.10;72.60;;;;;;5036541;28;20057;-62
2021/04/18 01:10:08;;;;;;;2.22;1.08;;;6.10;72.60;;;;;;5042472;28;20154;-62
2021/04/18 01:12:36;;;;;;;3.33;1.10;;;6.10;72.70;;;;;;5047581;28;20356;-63
2021/04/18 01:15:11;;;;;;;6.25;1.50;;;6.10;72.30;;;;;;5057122;28;20769;-62
2021/04/18 01:17:40;;;;;;;1.00;0.60;;;6.10;72.30;;;;;;5044473;28;20348;-61
2021/04/18 01:20:14;;;;;;;5.35;1.48;;;6.10;72.40;;;;;;5045177;28;20105;-63
2021/04/18 01:22:43;;;;;;;2.00;0.82;;;6.20;72.60;;;;;;5044738;28;20084;-63
2021/04/18 01:25:40;;;;;;;7.10;1.10;;;6.20;72.50;;;;;;5028159;28;20455;-63
2021/04/18 01:28:16;;;;;;;3.15;0.90;;;6.20;72.40;;;;;;5044972;28;20083;-63
2021/04/18 01:30:43;;;;;;;6.93;1.95;;;6.10;72.80;;;;;;5041489;28;20358;-62
2021/04/18 01:33:12;;;;;;;2.30;1.08;;;6.00;73.30;;;;;;5043683;28;20382;-63
2021/04/18 01:35:39;;;;;;;3.05;1.20;;;6.10;73.50;;;;;;5045535;28;20053;-63
2021/04/18 01:38:11;;;;;;;5.82;1.33;;;6.10;73.20;;;;;;5043073;28;20057;-63
2021/04/18 01:40:40;;;;;;;3.05;1.98;;;6.20;73.60;;;;;;5044167;28;20427;-63
2021/04/18 01:43:14;;;;;;;2.60;1.10;;;6.20;73.50;;;;;;5028938;28;20655;-62
2021/04/18 01:45:43;;;;;;;4.20;1.27;;;6.20;73.90;;;;;;5031411;28;20444;-62
2021/04/18 01:48:12;;;;;;;4.55;1.98;;;6.20;74.00;;;;;;5057130;28;20057;-62
2021/04/18 01:50:42;;;;;;;3.42;1.30;;;6.20;73.50;;;;;;5053347;28;20056;-62
2021/04/18 01:53:11;;;;;;;5.80;1.47;;;6.20;73.70;;;;;;5061146;28;20049;-63
2021/04/18 01:55:40;;;;;;;3.60;1.60;;;6.20;74.20;;;;;;5067060;28;20729;-62
2021/04/18 01:58:09;;;;;;;3.15;1.60;;;6.20;73.60;;;;;;5050806;28;20125;-63
2021/04/18 02:01:12;;;;;;;6.97;1.63;;;6.30;73.40;;;;;;5025891;28;20045;-63
2021/04/18 02:03:44;;;;;;;6.13;1.65;;;6.30;73.40;;;;;;5044047;28;20353;-63
2021/04/18 02:06:15;;;;;;;4.68;1.77;;;6.30;73.40;;;;;;5048366;28;20057;-62
2021/04/18 02:08:51;;;;;;;8.23;1.55;;;6.20;73.70;;;;;;5047524;28;20064;-62
2021/04/18 02:11:26;;;;;;;3.83;1.60;;;6.10;74.30;;;;;;5058294;28;20045;-62
2021/04/18 02:13:54;;;;;;;3.65;2.08;;;6.10;73.80;;;;;;5060000;28;20106;-63
2021/04/18 02:16:36;;;;;;;4.28;1.90;;;6.10;74.40;;;;;;5049302;28;20061;-62
2021/04/18 02:19:10;;;;;;;5.80;2.17;;;6.10;74.50;;;;;;5038134;28;20351;-62
2021/04/18 02:21:41;;;;;;;2.85;1.80;;;6.10;74.90;;;;;;5046507;28;20045;-62
2021/04/18 02:24:11;;;;;;;10.13;2.22;;;6.20;74.70;;;;;;5034605;28;20072;-62
2021/04/18 02:26:43;;;;;;;3.08;1.75;;;6.20;74.30;;;;;;5046190;28;20068;-63
2021/04/18 02:29:15;;;;;;;3.38;1.63;;;6.10;74.80;;;;;;5051376;28;20065;-63
2021/04/18 02:32:00;;;;;;;4.68;1.80;;;6.00;75.50;;;;;;5049463;28;20064;-62
2021/04/18 02:34:34;;;;;;;4.93;2.35;;;6.10;75.60;;;;;;5046050;28;20335;-63
2021/04/18 02:37:09;;;;;;;4.55;2.20;;;6.10;75.70;;;;;;5050009;28;20347;-63
2021/04/18 02:39:43;;;;;;;4.82;2.25;;;6.20;75.40;;;;;;5050106;28;20073;-63
2021/04/18 02:42:11;;;;;;;4.28;1.33;;;6.30;75.40;;;;;;5066029;28;20252;-62
2021/04/18 02:44:39;;;;;;;7.25;2.25;;;6.30;75.10;;;;;;5050253;28;20052;-62
2021/04/18 02:47:11;;;;;;;7.38;1.75;;;6.40;75.20;;;;;;5053022;28;20053;-63
2021/04/18 02:49:48;;;;;;;4.88;1.95;;;6.40;74.90;;;;;;5066116;28;20095;-62
2021/04/18 02:52:16;;;;;;;7.65;2.05;;;6.30;75.70;;;;;;5049715;28;20065;-62
2021/04/18 02:54:45;;;;;;;4.57;1.85;;;6.20;75.80;;;;;;5068679;28;20103;-62
2021/04/18 02:57:17;;;;;;;6.95;2.17;;;6.20;76.30;;;;;;5052603;28;20249;-62
2021/04/18 02:59:47;;;;;;;5.88;1.80;;;6.20;76.00;;;;;;5052407;28;20044;-63
2021/04/18 03:02:15;;;;;;;4.38;1.48;;;6.20;76.00;;;;;;5048103;28;20228;-63
2021/04/18 03:04:48;;;;;;;3.33;1.73;;;6.30;76.10;;;;;;5052939;28;20069;-63
2021/04/18 03:07:27;;;;;;;5.65;1.70;;;6.30;75.60;;;;;;5052300;28;20132;-63
2021/04/18 03:09:59;;;;;;;4.88;1.95;;;6.20;74.60;;;;;;5068696;28;20444;-62
2021/04/18 03:12:36;;;;;;;7.28;1.75;;;6.10;76.20;;;;;;5067780;28;20046;-63
2021/04/18 03:15:06;;;;;;;5.28;1.67;;;6.10;76.20;;;;;;5052778;28;20061;-62
2021/04/18 03:17:39;;;;;;;4.45;1.45;;;6.10;77.20;;;;;;5066684;28;20061;-63
2021/04/18 03:20:12;;;;;;;6.88;1.70;;;6.20;78.50;;;;;;5068478;28;20053;-64
2021/04/18 03:22:43;;;;;;;2.92;1.10;;;6.20;78.60;;;;;;5051987;28;20049;-62
2021/04/18 03:25:15;;;;;;;3.53;1.30;;;6.20;77.80;;;;;;5052416;28;20057;-63
2021/04/18 03:27:45;;;;;;;5.03;1.67;;;6.40;76.80;;;;;;5066845;28;20049;-63
2021/04/18 03:30:20;;;;;;;3.35;1.83;;;6.40;76.20;;;;;;5050167;28;20248;-62
2021/04/18 03:32:56;;;;;;;4.45;1.35;;;6.10;77.60;;;;;;5052036;28;20045;-63
2021/04/18 03:35:26;;;;;;;3.10;1.50;;;6.00;78.60;;;;;;5050917;28;20067;-62
2021/04/18 03:37:55;;;;;;;3.53;1.38;;;6.00;79.30;;;;;;5051407;28;20387;-62
2021/04/18 03:40:26;;;;;;;6.68;2.70;;;6.10;78.50;;;;;;5053401;28;20352;-63
2021/04/18 03:42:55;;;;;;;6.45;2.60;;;6.20;77.70;;;;;;5052655;28;20080;-63
2021/04/18 03:45:25;;;;;;;5.65;1.92;;;6.10;78.10;;;;;;5053067;28;20233;-63
2021/04/18 03:47:56;;;;;;;5.10;1.92;;;6.10;79.10;;;;;;5053451;28;20467;-63
2021/04/18 03:50:38;;;;;;;4.15;1.63;;;6.10;78.60;;;;;;5052907;28;20344;-62
2021/04/18 03:53:37;;;;;;;4.65;1.73;;;5.90;78.80;;;;;;5057100;28;20053;-63
2021/04/18 03:56:10;;;;;;;2.30;1.45;;;6.00;78.30;;;;;;5054910;28;20268;-63
2021/04/18 03:58:45;;;;;;;5.32;1.98;;;6.00;79.50;;;;;;5053148;28;20057;-62
2021/04/18 04:01:16;;;;;;;4.18;2.00;;;5.90;79.50;;;;;;5049775;28;20053;-63
2021/04/18 04:03:44;;;;;;;5.30;2.10;;;6.00;78.90;;;;;;5054930;28;20056;-63
2021/04/18 04:06:15;;;;;;;4.40;1.50;;;6.00;79.60;;;;;;5066598;28;20288;-63
2021/04/18 04:08:45;;;;;;;6.68;1.55;;;6.10;81.90;;;;;;5067346;28;20049;-63
2021/04/18 04:11:20;;;;;;;5.40;1.80;;;6.10;80.60;;;;;;5052591;28;20099;-63
2021/04/18 04:13:51;;;;;;;4.88;1.83;;;6.10;79.90;;;;;;5059077;28;20240;-63
2021/04/18 04:16:26;;;;;;;5.03;1.67;;;6.10;79.90;;;;;;5052599;28;20068;-62
2021/04/18 04:18:57;;;;;;;3.65;1.50;;;6.20;79.80;;;;;;5067808;28;20132;-63
2021/04/18 04:21:43;;;;;;;5.68;1.75;;;6.20;81.00;;;;;;5049479;28;20083;-63
2021/04/18 04:24:40;;;;;;;5.10;1.60;;;6.10;79.80;;;;;;5047833;28;20120;-62
2021/04/18 04:27:11;;;;;;;5.22;1.40;;;6.10;79.80;;;;;;5068564;28;20053;-62
2021/04/18 04:29:39;;;;;;;4.70;1.77;;;6.00;81.40;;;;;;5053740;28;20114;-62
2021/04/18 04:32:13;;;;;;;5.80;1.95;;;6.00;81.50;;;;;;5051742;28;20057;-63
2021/04/18 04:34:41;;;;;;;5.43;1.42;;;5.90;81.30;;;;;;5053491;28;20065;-63
2021/04/18 04:37:09;;;;;;;2.38;1.55;;;5.90;81.90;;;;;;5055652;28;20091;-63
2021/04/18 04:39:37;;;;;;;4.07;1.05;;;5.80;83.30;;;;;;5068572;28;20328;-63
2021/04/18 04:42:20;;;;;;;3.00;1.63;;;5.80;83.70;;;;;;5050705;28;20049;-63
2021/04/18 04:44:48;;;;;;;3.72;1.42;;;5.80;84.30;;;;;;5053084;28;20375;-62
2021/04/18 04:47:16;;;;;;;4.03;1.33;;;6.00;83.80;;;;;;5057659;28;20057;-63
2021/04/18 04:49:45;;;;;;;5.90;1.08;;;6.00;83.70;;;;;;5055277;28;20064;-63
2021/04/18 04:52:13;;;;;;;3.75;1.00;;;5.90;83.80;;;;;;5053504;28;20060;-63
2021/04/18 04:54:41;;;;;;;3.75;1.35;;;6.00;84.60;;;;;;5056422;28;20049;-62
2021/04/18 04:57:09;;;;;;;3.03;0.98;;;6.00;84.10;;;;;;5055570;28;20160;-63
2021/04/18 04:59:38;;;;;;;5.40;1.73;;;5.90;84.50;;;;;;5054124;28;20052;-62
2021/04/18 05:02:06;;;;;;;10.20;2.17;;;5.90;85.00;;;;;;5067169;28;20225;-63
2021/04/18 05:04:35;;;;;;;5.53;1.50;;;5.90;85.20;;;;;;5056296;28;20057;-62
2021/04/18 05:07:03;;;;;;;4.75;2.08;;;5.90;85.00;;;;;;5056038;28;20068;-63
2021/04/18 05:09:31;;;;;;;5.03;1.42;;;6.00;84.40;;;;;;5055900;28;20049;-63
2021/04/18 05:12:00;;;;;;;4.85;1.77;;;6.10;84.20;;;;;;5055738;28;20118;-62
2021/04/18 05:14:35;;;;;;;6.28;3.63;;;6.20;84.60;;;;;;4771173;28;10000550;-63
2021/04/18 05:17:04;;;;;;;5.72;2.15;;;6.20;84.00;;;;;;693065;28;10002050;-63
2021/04/18 05:19:33;;;;;;;3.65;1.75;;;6.20;84.10;;;;;;5042874;28;20167;-63
2021/04/18 05:22:01;;;;;;;4.25;2.40;;;6.20;84.10;;;;;;5050930;28;20266;-63
2021/04/18 05:24:30;;;;;;;3.03;1.80;;;6.10;85.00;;;;;;5036922;28;20053;-62
2021/04/18 05:26:58;;;;;;;4.57;1.40;;;6.20;84.30;;;;;;5036243;28;20065;-63
2021/04/18 05:29:26;;;;;;;7.05;1.92;;;6.40;83.70;;;;;;5035553;28;20061;-62
2021/04/18 05:31:55;;;;;;;4.97;1.60;;;6.40;83.70;;;;;;5037293;28;20344;-63
2021/04/18 05:34:23;;;;;;;4.15;1.88;;;6.40;83.70;;;;;;5037144;28;20369;-63
2021/04/18 05:37:06;;;;;;;5.25;1.90;;;6.40;84.80;;;;;;5036720;28;20053;-62
2021/04/18 05:39:34;;;;;;;4.30;1.73;;;6.40;84.60;;;;;;5037374;28;20285;-63
2021/04/18 05:42:04;;;;;;;3.08;1.65;;;6.40;84.00;;;;;;5060299;28;20053;-62
2021/04/18 05:44:32;;;;;;;4.97;2.08;;;6.30;84.10;;;;;;5036773;28;20296;-64
2021/04/18 05:46:59;;;;;;;9.23;3.17;;;6.30;84.50;;;;;;5038021;28;20340;-63
2021/04/18 05:49:30;;;;;;;20.15;6.18;;;6.30;84.90;;;;;;5037123;28;20061;-64
2021/04/18 05:51:58;;;;;;;5.82;2.17;;;6.20;85.50;;;;;;5033797;28;20081;-63
2021/04/18 05:54:26;;;;;;;5.28;2.08;;;6.20;86.40;;;;;;5037730;28;20041;-62
2021/04/18 05:56:54;;;;;;;4.35;1.70;;;6.40;85.10;;;;;;5037486;28;20057;-63
2021/04/18 05:59:22;;;;;;;4.05;2.03;;;6.30;85.40;;;;;;5036131;28;20125;-64
2021/04/18 06:01:51;;;;;;;4.43;2.33;;;6.20;84.70;;;;;;5035720;28;20046;-63
2021/04/18 06:04:19;;;;;;;4.63;1.67;;;6.30;85.40;;;;;;5035852;28;20241;-63
2021/04/18 06:06:48;;;;;;;4.10;1.80;;;6.50;83.30;;;;;;5036737;28;20244;-63
2021/04/18 06:09:15;;;;;;;4.60;1.55;;;6.40;82.20;;;;;;5036801;28;20064;-63
2021/04/18 06:11:44;;;;;;;4.97;2.08;;;6.50;82.30;;;;;;5037231;28;20439;-63
2021/04/18 06:14:13;;;;;;;4.00;1.80;;;6.40;81.50;;;;;;5038357;28;20053;-62
2021/04/18 06:16:56;;;;;;;4.45;1.90;;;6.40;81.20;;;;;;5089778;27;20406;-62
2021/04/18 06:19:35;;;;;;;6.07;2.13;;;6.50;81.80;;;;;;5086896;28;20056;-63
2021/04/18 06:22:10;;;;;;;4.97;1.90;;;6.70;82.20;;;;;;5086672;28;20048;-63
2021/04/18 06:24:37;;;;;;;6.15;2.65;;;6.80;82.50;;;;;;5089160;28;20079;-63
2021/04/18 06:27:13;;;;;;;4.57;2.83;;;6.80;81.60;;;;;;5088423;28;20075;-64
2021/04/18 06:29:45;;;;;;;7.15;2.42;;;6.70;80.30;;;;;;5089080;28;20060;-63
2021/04/18 06:32:13;;;;;;;6.32;2.38;;;6.70;80.80;;;;;;5086469;28;20052;-62
2021/04/18 06:34:41;;;;;;;6.28;2.67;;;6.80;81.30;;;;;;5086497;28;20032;-62
2021/04/18 06:37:09;;;;;;;5.18;2.22;;;6.80;80.20;;;;;;5081596;28;20286;-62
2021/04/18 06:39:39;;;;;;;4.25;2.22;;;6.90;80.90;;;;;;5086652;28;20271;-63
2021/04/18 06:42:08;;;;;;;8.32;3.03;;;6.90;80.80;;;;;;5087527;28;20390;-62
2021/04/18 06:44:36;;;;;;;5.30;1.95;;;7.00;80.00;;;;;;5088136;28;20086;-62
2021/04/18 06:47:04;;;;;;;6.00;2.60;;;7.00;79.80;;;;;;5086935;28;20071;-63
2021/04/18 06:49:35;;;;;;;5.00;2.35;;;7.10;79.20;;;;;;5068683;28;20178;-63
2021/04/18 06:52:07;;;;;;;8.38;2.08;;;7.10;78.90;;;;;;5088881;28;20048;-63
2021/04/18 06:54:37;;;;;;;7.10;2.50;;;7.10;79.70;;;;;;5087044;28;20056;-63
2021/04/18 06:57:05;;;;;;;5.43;2.40;;;7.20;80.00;;;;;;5087081;28;20059;-62
2021/04/18 06:59:37;;;;;;;5.10;2.10;;;7.20;81.30;;;;;;5086675;28;20343;-63
2021/04/18 07:02:22;;;;;;;7.80;2.17;;;7.10;82.60;;;;;;5083758;28;20077;-63
2021/04/18 07:04:58;;;;;;;5.30;1.90;;;7.20;82.50;;;;;;5087099;28;20049;-62
2021/04/18 07:07:31;;;;;;;5.80;2.10;;;7.20;82.50;;;;;;5086586;28;20356;-62
2021/04/18 07:09:59;;;;;;;3.15;1.60;;;7.20;82.50;;;;;;5090327;28;20063;-63
2021/04/18 07:12:33;;;;;;;5.05;1.80;;;7.10;82.90;;;;;;5086820;28;20396;-63
2021/04/18 07:15:05;;;;;;;;;;;7.10;83.30;;;;;;5083068;28;20049;-62
2021/04/18 07:17:33;;;;;;;10.20;2.40;;;7.00;83.10;;;;;;5088075;28;19923;-62
2021/04/18 07:20:13;;;;;;;6.25;1.95;;;7.00;83.90;;;;;;5086475;28;20056;-63
2021/04/18 07:22:42;;;;;;;5.57;2.20;;;7.10;82.40;;;;;;5085675;28;20075;-63
2021/04/18 07:25:11;;;;;;;5.25;2.33;;;7.10;81.60;;;;;;5088895;28;20048;-62
2021/04/18 07:27:46;;;;;;;7.40;2.50;;;7.00;81.50;;;;;;5077253;28;20103;-62
2021/04/18 07:30:17;;;;;;;9.80;2.65;;;7.00;82.30;;;;;;5075087;28;20064;-62
2021/04/18 07:33:04;;;;;;;7.68;2.67;;;6.80;83.30;;;;;;5074597;28;20352;-62
2021/04/18 07:35:34;;;;;;;7.07;2.20;;;6.70;85.00;;;;;;5075263;28;20119;-62
2021/04/18 07:38:22;;;;;;;7.65;2.70;;;6.90;84.90;;;;;;5075015;28;20060;-62
2021/04/18 07:40:53;;;;;;;8.05;3.05;;;6.90;84.30;;;;;;5075020;28;20090;-62
2021/04/18 07:43:51;;;;;;;6.20;2.97;;;7.00;83.90;;;;;;5085412;22;20049;-88
2021/04/18 07:46:21;;;;;;;5.65;2.88;;;7.10;84.70;;;;;;5053359;28;20057;-88
2021/04/18 07:48:49;;;;;;;;;;;7.10;84.70;;;;;;5010307;28;20061;-87
2021/04/18 07:51:20;;;;;;;7.05;2.33;;;7.10;84.40;;;;;;5021069;28;19986;-86
2021/04/18 07:53:50;;;;;;;18.17;7.50;;;7.20;84.30;;;;;;5007625;28;20061;-87
2021/04/18 07:56:18;;;;;;;21.35;10.65;;;7.30;84.40;;;;;;5029469;28;20046;-88
2021/04/18 07:58:47;;;;;;;11.38;5.13;;;7.30;84.30;;;;;;5038626;28;20054;-88
2021/04/18 08:01:15;;;;;;;8.70;3.35;;;7.50;84.10;;;;;;5038711;28;20053;-83
2021/04/18 08:03:46;;;;;;;10.00;4.78;;;8.00;82.00;;;;;;5043270;28;20052;-86
2021/04/18 08:06:35;;;;;;;11.05;4.45;;;8.20;81.10;;;;;;5032577;28;20069;-85
2021/04/18 08:09:18;;;;;;;7.72;3.50;;;8.30;81.70;;;;;;5037341;28;20052;-84
2021/04/18 08:12:13;;;;;;;9.05;2.90;;;8.60;79.90;;;;;;5021089;28;20061;-85
2021/04/18 08:14:44;;;;;;;11.95;4.57;;;8.70;78.90;;;;;;5035856;28;20049;-85
2021/04/18 08:17:15;;;;;;;12.75;3.85;;;8.70;78.60;;;;;;5035862;28;20341;-85
2021/04/18 08:19:59;;;;;;;10.13;4.18;;;8.70;78.10;;;;;;5025991;28;20099;-85
2021/04/18 08:23:04;;;;;;;10.50;3.83;;;8.60;79.60;;;;;;5034789;28;20061;-85
2021/04/18 08:25:36;;;;;;;8.05;3.55;;;8.60;80.80;;;;;;5047719;28;20044;-84
2021/04/18 08:28:13;;;;;;;9.13;4.05;;;8.80;78.70;;;;;;5034005;28;20356;-84
2021/04/18 08:31:08;;;;;;;10.45;5.38;;;8.80;78.90;;;;;;5015055;28;20042;-84
2021/04/18 08:33:46;;;;;;;11.35;5.15;;;9.00;78.00;;;;;;5000563;28;20057;-85
2021/04/18 08:36:20;;;;;;;8.93;4.07;;;9.10;77.40;;;;;;5032784;28;20238;-84
2021/04/18 08:39:10;;;;;;;8.40;3.95;;;9.00;78.40;;;;;;5030531;28;20058;-85
2021/04/18 08:41:42;;;;;;;12.68;4.65;;;8.90;78.10;;;;;;5031638;28;20064;-86
2021/04/18 08:47:02;;;;;;;10.57;4.53;;;8.90;79.50;;;;;;5024464;28;20063;-85
2021/04/18 08:49:37;;;;;;;10.98;4.45;;;8.80;80.40;;;;;;5024416;28;20052;-83
2021/04/18 08:52:08;;;;;;;10.55;4.90;;;9.20;79.70;;;;;;5008489;28;20316;-84
2021/04/18 08:54:56;;;;;;;9.63;4.18;;;9.30;78.90;;;;;;5046329;28;20053;-84
2021/04/18 08:57:28;;;;;;;10.60;4.57;;;9.20;78.80;;;;;;5007338;28;20053;-86
2021/04/18 09:00:08;;;;;;;8.02;3.58;;;9.20;79.20;;;;;;5015947;28;20054;-86
2021/04/18 09:02:37;;;;;;;13.85;5.57;;;9.50;77.60;;;;;;5007337;28;20075;-84
2021/04/18 09:05:13;;;;;;;9.52;4.75;;;9.70;78.40;;;;;;5018203;28;20076;-85
2021/04/18 09:07:46;;;;;;;9.20;3.95;;;9.60;77.60;;;;;;5009571;28;20179;-85
2021/04/18 09:10:19;;;;;;;12.40;4.60;;;9.70;78.00;;;;;;4990138;28;20054;-84
2021/04/18 09:12:51;;;;;;;11.75;4.82;;;10.10;77.00;;;;;;5019982;28;20054;-81
2021/04/18 09:15:31;;;;;;;16.00;4.55;;;10.00;76.30;;;;;;5042385;28;20233;-86
2021/04/18 09:18:01;;;;;;;9.30;4.25;;;9.80;76.70;;;;;;5036546;28;20057;-84
2021/04/18 09:20:39;;;;;;;10.68;3.70;;;10.10;76.50;;;;;;5018259;28;20053;-84
2021/04/18 09:23:16;;;;;;;;;;;9.80;77.70;;;;;;5037799;28;20330;-86
2021/04/18 09:26:10;;;;;;;8.60;4.20;;;9.90;77.60;;;;;;5034362;28;20101;-85
2021/04/18 09:28:40;;;;;;;13.20;5.28;;;9.90;77.30;;;;;;5011902;28;20053;-84
2021/04/18 09:31:10;;;;;;;13.10;5.15;;;10.30;78.00;;;;;;5019259;28;20049;-84
2021/04/18 09:33:38;;;;;;;18.85;6.68;;;10.30;77.10;;;;;;5001961;28;20345;-85
2021/04/18 09:36:18;;;;;;;13.35;6.63;;;10.30;76.70;;;;;;5031345;28;20107;-82
2021/04/18 09:38:47;;;;;;;;;;;10.50;76.90;;;;;;5037376;28;20116;-84
2021/04/18 09:41:18;;;;;;;11.30;5.57;;;10.50;75.60;;;;;;5023328;28;19952;-85
2021/04/18 09:43:56;;;;;;;10.02;4.43;;;10.70;76.20;;;;;;5034490;28;20065;-84
2021/04/18 09:46:25;;;;;;;9.90;5.25;;;11.10;75.00;;;;;;5034734;28;20073;-84
2021/04/18 09:49:01;;;;;;;10.48;5.53;;;11.10;74.00;;;;;;5018012;28;20049;-86
2021/04/18 09:51:53;;;;;;;10.95;5.07;;;11.10;75.40;;;;;;5035839;28;20068;-85
2021/04/18 09:54:32;;;;;;;10.50;4.45;;;11.10;74.30;;;;;;5034898;28;20049;-83
2021/04/18 09:57:24;;;;;;;8.15;4.35;;;10.90;75.40;;;;;;5035841;28;20054;-84
2021/04/18 10:00:31;;;;;;;11.85;4.88;;;11.10;75.70;;;;;;5039370;28;20054;-84
2021/04/18 10:03:07;;;;;;;13.05;5.10;;;11.40;71.80;;;;;;5018322;28;20103;-85
2021/04/18 10:05:56;;;;;;;12.90;5.72;;;11.80;72.80;;;;;;5033555;28;20072;-85
2021/04/18 10:08:26;;;;;;;13.60;6.82;;;12.10;72.10;;;;;;5029454;28;20109;-85
2021/04/18 10:10:57;;;;;;;11.93;5.65;;;12.40;70.60;;;;;;5016557;28;20049;-83
2021/04/18 10:13:49;;;;;;;11.80;5.90;;;13.00;68.10;;;;;;5017649;28;20050;-85
2021/04/18 10:16:19;;;;;;;11.23;5.97;;;13.00;67.10;;;;;;4999802;28;20129;-84
2021/04/18 10:19:14;;;;;;;12.57;5.53;;;13.60;66.60;;;;;;5050213;28;20296;-85
2021/04/18 10:21:53;;;;;;;11.55;5.47;;;13.70;63.50;;;;;;5019771;28;20118;-86
2021/04/18 10:24:35;;;;;;;8.70;4.88;;;13.70;64.50;;;;;;5037895;28;20045;-84
2021/04/18 10:27:21;;;;;;;19.98;7.68;;;14.30;62.50;;;;;;5019724;28;20124;-83
2021/04/18 10:29:53;;;;;;;12.18;5.80;;;14.50;60.90;;;;;;5024499;28;20064;-85
2021/04/18 10:32:39;;;;;;;8.32;4.70;;;15.10;59.00;;;;;;5016237;28;20095;-83
2021/04/18 10:35:13;;;;;;;14.20;6.10;;;16.30;55.10;;;;;;5005533;28;20046;-84
2021/04/18 10:37:49;;;;;;;13.55;5.50;;;18.10;50.40;;;;;;5029518;28;20050;-84
2021/04/18 10:40:24;;;;;;;8.80;5.05;;;18.80;47.90;;;;;;5008546;28;20419;-84
2021/04/18 10:42:56;;;;;;;8.57;4.43;;;17.80;50.20;;;;;;5002273;28;20357;-84
2021/04/18 10:45:34;;;;;;;10.05;5.20;;;17.60;49.40;;;;;;5028104;28;20038;-84
2021/04/18 10:48:08;;;;;;;10.83;5.50;;;17.20;51.30;;;;;;5038464;28;20124;-85
2021/04/18 10:50:38;;;;;;;8.90;4.50;;;16.70;53.70;;;;;;5020556;28;20054;-84
2021/04/18 10:53:09;;;;;;;11.30;5.07;;;16.90;53.40;;;;;;5014137;28;20244;-84
2021/04/18 10:55:36;;;;;;;8.45;4.47;;;17.30;51.10;;;;;;5009439;28;20045;-83
2021/04/18 10:58:13;;;;;;;11.68;5.60;;;16.80;51.10;;;;;;5011080;28;20376;-84
2021/04/18 11:00:42;;;;;;;10.65;5.22;;;16.60;53.30;;;;;;5025303;28;20064;-84
2021/04/18 11:03:10;;;;;;;7.75;3.83;;;16.80;51.20;;;;;;5007694;28;20136;-85
2021/04/18 11:05:43;;;;;;;7.53;4.15;;;16.60;51.00;;;;;;5026629;28;20190;-85
2021/04/18 11:08:13;;;;;;;9.60;3.80;;;16.70;52.80;;;;;;5046234;28;20066;-84
2021/04/18 11:10:42;;;;;;;6.93;3.85;;;17.40;50.70;;;;;;5033893;28;20046;-84
2021/04/18 11:13:11;;;;;;;12.20;5.05;;;17.60;49.60;;;;;;5007940;28;20049;-85
2021/04/18 11:15:39;;;;;;;11.68;5.18;;;17.20;50.10;;;;;;5033986;28;20092;-86
2021/04/18 11:18:12;;;;;;;9.48;4.65;;;17.70;51.00;;;;;;5032216;28;20050;-86
2021/04/18 11:20:39;;;;;;;9.25;5.15;;;17.90;48.70;;;;;;4994834;28;20046;-85
2021/04/18 11:23:06;;;;;;;10.48;4.43;;;18.10;47.70;;;;;;5044096;28;20081;-83
2021/04/18 11:25:36;;;;;;;7.30;3.95;;;17.20;49.60;;;;;;5033128;28;20050;-83
2021/04/18 11:28:05;;;;;;;6.40;3.38;;;16.70;49.20;;;;;;5020731;28;20124;-84
2021/04/18 11:30:47;;;;;;;9.18;4.28;;;16.80;50.60;;;;;;5007876;28;20050;-84
2021/04/18 11:33:19;;;;;;;6.45;3.60;;;17.10;50.60;;;;;;5010106;28;20053;-83
2021/04/18 11:35:47;;;;;;;6.85;3.17;;;18.60;46.60;;;;;;5026304;28;20160;-86
2021/04/18 11:38:17;;;;;;;9.73;4.07;;;19.90;45.40;;;;;;5010185;28;20062;-87
2021/04/18 11:40:53;;;;;;;9.93;4.38;;;19.80;44.00;;;;;;5019840;28;20057;-85
2021/04/18 11:43:21;;;;;;;6.60;3.53;;;19.10;44.30;;;;;;5009333;28;20053;-82
2021/04/18 11:45:57;;;;;;;8.52;4.25;;;18.60;46.10;;;;;;5007344;28;20056;-83
2021/04/18 11:48:27;;;;;;;12.30;5.88;;;18.20;46.60;;;;;;5015605;28;20088;-82
2021/04/18 11:50:56;;;;;;;10.05;4.63;;;17.80;47.80;;;;;;5025076;28;20048;-82
2021/04/18 11:53:24;;;;;;;11.43;4.95;;;17.70;47.80;;;;;;5034050;28;20297;-82
2021/04/18 11:55:52;;;;;;;9.88;4.60;;;17.60;48.40;;;;;;5008209;28;20045;-81
2021/04/18 11:58:20;;;;;;;8.35;4.32;;;16.60;51.20;;;;;;5035024;28;20073;-82
2021/04/18 12:00:48;;;;;;;7.90;3.33;;;16.50;51.70;;;;;;5013914;28;20135;-83
2021/04/18 12:03:17;;;;;;;8.70;3.92;;;16.60;50.30;;;;;;5030743;28;20348;-83
2021/04/18 12:05:48;;;;;;;10.30;4.07;;;16.10;52.40;;;;;;5017838;28;20070;-83
2021/04/18 12:08:18;;;;;;;8.85;3.85;;;15.70;54.20;;;;;;5012035;28;20049;-83
2021/04/18 12:10:49;;;;;;;7.50;3.90;;;16.00;53.70;;;;;;5003940;28;20141;-80
2021/04/18 12:13:39;;;;;;;6.70;3.42;;;15.90;53.10;;;;;;5018728;28;20037;-82
2021/04/18 12:16:09;;;;;;;9.45;4.38;;;15.70;55.10;;;;;;5023889;28;20050;-82
2021/04/18 12:18:37;;;;;;;8.82;3.67;;;15.70;54.00;;;;;;5025943;28;20150;-82
2021/04/18 12:21:11;;;;;;;7.22;3.65;;;15.80;53.50;;;;;;5029778;28;20080;-82
2021/04/18 12:23:41;;;;;;;5.93;3.10;;;15.30;55.20;;;;;;4998257;28;20103;-81
2021/04/18 12:26:12;;;;;;;7.95;3.72;;;15.50;54.70;;;;;;5031988;28;20042;-81
2021/04/18 12:28:43;;;;;;;5.68;2.83;;;15.50;54.20;;;;;;5021686;28;20541;-83
2021/04/18 12:31:13;;;;;;;5.70;3.22;;;15.40;54.20;;;;;;5032605;28;20054;-86
2021/04/18 12:33:45;;;;;;;6.78;3.17;;;15.10;55.00;;;;;;5024427;28;20060;-82
2021/04/18 12:36:16;;;;;;;7.97;3.20;;;14.90;56.40;;;;;;5011842;28;20041;-85
2021/04/18 12:38:44;;;;;;;7.35;2.88;;;14.60;57.90;;;;;;5022507;28;20049;-82
2021/04/18 12:41:13;;;;;;;7.90;3.03;;;14.40;57.70;;;;;;5014772;28;20072;-82
2021/04/18 12:43:41;;;;;;;7.40;3.33;;;14.20;57.90;;;;;;5015529;28;20046;-83
2021/04/18 12:46:09;;;;;;;10.55;4.47;;;14.00;58.70;;;;;;5014973;28;20352;-83
2021/04/18 12:48:36;;;;;;;9.25;4.32;;;13.90;58.90;;;;;;5034885;28;20053;-83
2021/04/18 12:51:06;;;;;;;7.47;3.78;;;14.00;59.50;;;;;;5038595;28;20179;-82
2021/04/18 12:53:35;;;;;;;8.73;4.20;;;14.20;58.70;;;;;;5029620;28;20145;-81
2021/04/18 12:56:07;;;;;;;6.82;3.22;;;14.40;58.30;;;;;;5022734;28;20049;-84
2021/04/18 12:58:35;;;;;;;7.75;3.97;;;15.00;56.40;;;;;;5008818;28;20052;-83
2021/04/18 13:01:07;;;;;;;8.32;3.60;;;16.40;52.70;;;;;;5024687;28;20053;-84
2021/04/18 13:03:35;;;;;;;9.43;3.97;;;18.90;47.00;;;;;;5022537;28;20426;-84
2021/04/18 13:06:03;;;;;;;7.82;3.42;;;20.50;43.30;;;;;;5031649;28;20046;-82
2021/04/18 13:08:31;;;;;;;5.93;3.17;;;22.10;39.30;;;;;;5026437;28;20053;-84
2021/04/18 13:11:00;;;;;;;7.88;4.22;;;24.00;36.20;;;;;;5024959;28;20056;-83
2021/04/18 13:13:29;;;;;;;8.48;4.00;;;24.70;32.60;;;;;;5026161;28;20053;-83
2021/04/18 13:15:57;;;;;;;5.90;3.20;;;26.30;31.90;;;;;;5024489;28;20842;-83
2021/04/18 13:18:26;;;;;;;7.25;3.60;;;26.40;30.90;;;;;;5034122;28;20080;-84
2021/04/18 13:25:02;;;;;;;7.43;3.88;;;25.80;31.00;;;;;;5006316;28;20141;-82
2021/04/18 13:27:31;;;;;;;6.60;3.33;;;27.30;28.20;;;;;;5003281;28;20064;-81